sensor_id;sensor_type;location;lat;lon;timestamp;P1;durP1;ratioP1;P2;durP2;ratioP2
65656;SDS011;57397;50.096;14.404;2022-12-29T00:02:02;4.32;;;2.38;;
65656;SDS011;57397;50.096;14.404;2022-12-29T00:04:28;3.92;;;2.10;;
65656;SDS011;57397;50.096;14.404;2022-12-29T00:06:53;3.45;;;2.38;;
65656;SDS011;57397;50.096;14.404;2022-12-29T00:09:19;4.38;;;2.50;;
65656;SDS011;57397;50.096;14.404;2022-12-29T00:11:45;4.50;;;2.10;;
65656;SDS011;57397;50.096;14.404;2022-12-29T00:14:10;4.05;;;2.33;;
65656;SDS011;57397;50.096;14.404;2022-12-29T00:16:55;4.78;;;2.35;;
65656;SDS011;57397;50.096;14.404;2022-12-29T00:19:21;3.95;;;2.17;;
65656;SDS011;57397;50.096;14.404;2022-12-29T00:22:05;4.70;;;2.38;;
65656;SDS011;57397;50.096;14.404;2022-12-29T00:24:49;7.75;;;3.63;;
65656;SDS011;57397;50.096;14.404;2022-12-29T00:27:27;26.63;;;10.25;;
65656;SDS011;57397;50.096;14.404;2022-12-29T00:30:13;64.63;;;23.35;;
65656;SDS011;57397;50.096;14.404;2022-12-29T00:32:58;60.40;;;21.77;;
65656;SDS011;57397;50.096;14.404;2022-12-29T00:35:44;69.40;;;25.70;;
65656;SDS011;57397;50.096;14.404;2022-12-29T00:38:11;59.78;;;22.33;;
65656;SDS011;57397;50.096;14.404;2022-12-29T00:40:56;52.47;;;19.75;;
65656;SDS011;57397;50.096;14.404;2022-12-29T00:43:40;41.90;;;17.77;;
65656;SDS011;57397;50.096;14.404;2022-12-29T00:46:24;36.95;;;15.88;;
65656;SDS011;57397;50.096;14.404;2022-12-29T00:48:49;31.52;;;12.57;;
65656;SDS011;57397;50.096;14.404;2022-12-29T00:51:34;31.55;;;13.05;;
65656;SDS011;57397;50.096;14.404;2022-12-29T00:53:59;27.25;;;11.30;;
65656;SDS011;57397;50.096;14.404;2022-12-29T00:56:25;27.20;;;11.35;;
65656;SDS011;57397;50.096;14.404;2022-12-29T00:58:51;23.65;;;10.40;;
65656;SDS011;57397;50.096;14.404;2022-12-29T01:01:17;22.05;;;9.30;;
65656;SDS011;57397;50.096;14.404;2022-12-29T01:03:42;17.65;;;7.97;;
65656;SDS011;57397;50.096;14.404;2022-12-29T01:06:09;18.02;;;7.55;;
65656;SDS011;57397;50.096;14.404;2022-12-29T01:08:35;16.15;;;7.63;;
65656;SDS011;57397;50.096;14.404;2022-12-29T01:11:08;15.80;;;7.22;;
65656;SDS011;57397;50.096;14.404;2022-12-29T01:13:35;18.02;;;7.95;;
65656;SDS011;57397;50.096;14.404;2022-12-29T01:16:02;15.77;;;7.00;;
65656;SDS011;57397;50.096;14.404;2022-12-29T01:18:27;14.65;;;7.22;;
65656;SDS011;57397;50.096;14.404;2022-12-29T01:21:03;14.63;;;6.95;;
65656;SDS011;57397;50.096;14.404;2022-12-29T01:23:29;13.50;;;6.85;;
65656;SDS011;57397;50.096;14.404;2022-12-29T01:25:55;13.20;;;6.50;;
65656;SDS011;57397;50.096;14.404;2022-12-29T01:28:21;12.27;;;6.00;;
65656;SDS011;57397;50.096;14.404;2022-12-29T01:30:46;11.57;;;5.40;;
65656;SDS011;57397;50.096;14.404;2022-12-29T01:33:12;9.32;;;4.97;;
65656;SDS011;57397;50.096;14.404;2022-12-29T01:35:37;12.10;;;5.82;;
65656;SDS011;57397;50.096;14.404;2022-12-29T01:38:03;12.30;;;6.47;;
65656;SDS011;57397;50.096;14.404;2022-12-29T01:40:28;12.18;;;6.65;;
65656;SDS011;57397;50.096;14.404;2022-12-29T01:42:54;11.68;;;6.45;;
65656;SDS011;57397;50.096;14.404;2022-12-29T01:45:19;9.75;;;5.60;;
65656;SDS011;57397;50.096;14.404;2022-12-29T01:48:03;10.95;;;5.90;;
65656;SDS011;57397;50.096;14.404;2022-12-29T01:50:32;12.15;;;6.18;;
65656;SDS011;57397;50.096;14.404;2022-12-29T01:53:00;12.95;;;6.40;;
65656;SDS011;57397;50.096;14.404;2022-12-29T01:55:35;11.85;;;7.70;;
65656;SDS011;57397;50.096;14.404;2022-12-29T01:58:04;12.57;;;7.53;;
65656;SDS011;57397;50.096;14.404;2022-12-29T02:00:31;12.77;;;7.70;;
65656;SDS011;57397;50.096;14.404;2022-12-29T02:02:56;11.38;;;6.80;;
65656;SDS011;57397;50.096;14.404;2022-12-29T02:05:31;11.00;;;6.40;;
65656;SDS011;57397;50.096;14.404;2022-12-29T02:08:03;11.40;;;6.10;;
65656;SDS011;57397;50.096;14.404;2022-12-29T02:10:29;10.10;;;5.68;;
65656;SDS011;57397;50.096;14.404;2022-12-29T02:12:57;9.15;;;5.72;;
65656;SDS011;57397;50.096;14.404;2022-12-29T02:15:25;13.18;;;7.78;;
65656;SDS011;57397;50.096;14.404;2022-12-29T02:29:27;21.13;;;10.68;;
65656;SDS011;57397;50.096;14.404;2022-12-29T02:32:01;20.15;;;10.18;;
65656;SDS011;57397;50.096;14.404;2022-12-29T02:39:55;13.93;;;7.38;;
65656;SDS011;57397;50.096;14.404;2022-12-29T02:42:29;12.68;;;7.00;;
65656;SDS011;57397;50.096;14.404;2022-12-29T02:50:15;11.48;;;5.72;;
65656;SDS011;57397;50.096;14.404;2022-12-29T02:53:09;10.35;;;5.57;;
65656;SDS011;57397;50.096;14.404;2022-12-29T02:55:37;9.32;;;5.38;;
65656;SDS011;57397;50.096;14.404;2022-12-29T03:00:35;8.85;;;4.53;;
65656;SDS011;57397;50.096;14.404;2022-12-29T03:10:59;8.05;;;4.72;;
65656;SDS011;57397;50.096;14.404;2022-12-29T03:16:45;9.63;;;4.90;;
65656;SDS011;57397;50.096;14.404;2022-12-29T03:19:26;9.40;;;4.80;;
65656;SDS011;57397;50.096;14.404;2022-12-29T03:22:04;7.75;;;4.38;;
65656;SDS011;57397;50.096;14.404;2022-12-29T03:24:53;7.38;;;4.05;;
65656;SDS011;57397;50.096;14.404;2022-12-29T03:27:23;5.97;;;3.70;;
65656;SDS011;57397;50.096;14.404;2022-12-29T03:29:55;5.80;;;3.40;;
65656;SDS011;57397;50.096;14.404;2022-12-29T03:32:25;5.38;;;3.33;;
65656;SDS011;57397;50.096;14.404;2022-12-29T03:34:59;5.35;;;2.88;;
65656;SDS011;57397;50.096;14.404;2022-12-29T03:37:26;5.63;;;3.38;;
65656;SDS011;57397;50.096;14.404;2022-12-29T03:40:03;4.40;;;3.10;;
65656;SDS011;57397;50.096;14.404;2022-12-29T03:42:30;4.35;;;2.63;;
65656;SDS011;57397;50.096;14.404;2022-12-29T03:44:57;4.30;;;2.80;;
65656;SDS011;57397;50.096;14.404;2022-12-29T03:47:23;5.75;;;2.70;;
65656;SDS011;57397;50.096;14.404;2022-12-29T03:49:49;4.70;;;2.85;;
65656;SDS011;57397;50.096;14.404;2022-12-29T03:52:15;4.93;;;2.45;;
65656;SDS011;57397;50.096;14.404;2022-12-29T03:54:41;5.38;;;2.50;;
65656;SDS011;57397;50.096;14.404;2022-12-29T03:57:08;3.05;;;2.15;;
65656;SDS011;57397;50.096;14.404;2022-12-29T03:59:33;4.32;;;2.28;;
65656;SDS011;57397;50.096;14.404;2022-12-29T04:01:59;3.83;;;2.22;;
65656;SDS011;57397;50.096;14.404;2022-12-29T04:04:24;4.05;;;2.30;;
65656;SDS011;57397;50.096;14.404;2022-12-29T04:06:50;3.40;;;2.20;;
65656;SDS011;57397;50.096;14.404;2022-12-29T04:09:15;3.47;;;2.10;;
65656;SDS011;57397;50.096;14.404;2022-12-29T04:11:41;3.22;;;2.10;;
65656;SDS011;57397;50.096;14.404;2022-12-29T04:14:06;4.18;;;2.20;;
65656;SDS011;57397;50.096;14.404;2022-12-29T04:16:32;3.78;;;2.00;;
65656;SDS011;57397;50.096;14.404;2022-12-29T04:19:00;3.22;;;1.83;;
65656;SDS011;57397;50.096;14.404;2022-12-29T04:21:26;3.05;;;1.83;;
65656;SDS011;57397;50.096;14.404;2022-12-29T04:23:52;3.60;;;1.98;;
65656;SDS011;57397;50.096;14.404;2022-12-29T04:26:17;3.83;;;2.00;;
65656;SDS011;57397;50.096;14.404;2022-12-29T04:28:43;2.60;;;1.73;;
65656;SDS011;57397;50.096;14.404;2022-12-29T04:31:08;2.58;;;1.70;;
65656;SDS011;57397;50.096;14.404;2022-12-29T04:33:34;3.20;;;1.67;;
65656;SDS011;57397;50.096;14.404;2022-12-29T04:35:59;2.80;;;1.65;;
65656;SDS011;57397;50.096;14.404;2022-12-29T04:38:25;3.30;;;1.65;;
65656;SDS011;57397;50.096;14.404;2022-12-29T04:40:51;3.95;;;1.60;;
65656;SDS011;57397;50.096;14.404;2022-12-29T04:43:16;2.65;;;1.58;;
65656;SDS011;57397;50.096;14.404;2022-12-29T04:45:44;2.40;;;1.33;;
65656;SDS011;57397;50.096;14.404;2022-12-29T04:48:13;4.68;;;1.75;;
65656;SDS011;57397;50.096;14.404;2022-12-29T04:50:39;3.17;;;1.30;;
65656;SDS011;57397;50.096;14.404;2022-12-29T04:53:05;2.53;;;1.42;;
65656;SDS011;57397;50.096;14.404;2022-12-29T04:55:30;2.42;;;1.50;;
65656;SDS011;57397;50.096;14.404;2022-12-29T04:57:56;3.40;;;1.80;;
65656;SDS011;57397;50.096;14.404;2022-12-29T05:00:21;2.15;;;1.20;;
65656;SDS011;57397;50.096;14.404;2022-12-29T05:02:47;2.50;;;1.50;;
65656;SDS011;57397;50.096;14.404;2022-12-29T05:05:13;3.08;;;1.58;;
65656;SDS011;57397;50.096;14.404;2022-12-29T05:07:38;2.25;;;1.30;;
65656;SDS011;57397;50.096;14.404;2022-12-29T05:10:04;2.80;;;1.40;;
65656;SDS011;57397;50.096;14.404;2022-12-29T05:12:31;3.10;;;1.40;;
65656;SDS011;57397;50.096;14.404;2022-12-29T05:14:57;2.78;;;1.35;;
65656;SDS011;57397;50.096;14.404;2022-12-29T05:17:23;2.67;;;1.30;;
65656;SDS011;57397;50.096;14.404;2022-12-29T05:19:48;2.28;;;1.30;;
65656;SDS011;57397;50.096;14.404;2022-12-29T05:22:13;2.20;;;1.30;;
65656;SDS011;57397;50.096;14.404;2022-12-29T05:24:39;2.20;;;1.20;;
65656;SDS011;57397;50.096;14.404;2022-12-29T05:27:05;1.83;;;1.17;;
65656;SDS011;57397;50.096;14.404;2022-12-29T05:29:30;4.75;;;2.03;;
65656;SDS011;57397;50.096;14.404;2022-12-29T05:31:56;6.22;;;2.55;;
65656;SDS011;57397;50.096;14.404;2022-12-29T05:34:21;7.50;;;3.75;;
65656;SDS011;57397;50.096;14.404;2022-12-29T05:36:47;12.02;;;5.32;;
65656;SDS011;57397;50.096;14.404;2022-12-29T05:39:12;12.80;;;5.53;;
65656;SDS011;57397;50.096;14.404;2022-12-29T05:41:38;13.40;;;6.07;;
65656;SDS011;57397;50.096;14.404;2022-12-29T05:44:03;12.45;;;5.63;;
65656;SDS011;57397;50.096;14.404;2022-12-29T05:46:29;19.75;;;8.65;;
65656;SDS011;57397;50.096;14.404;2022-12-29T05:48:54;20.90;;;9.35;;
65656;SDS011;57397;50.096;14.404;2022-12-29T05:51:20;28.75;;;12.90;;
65656;SDS011;57397;50.096;14.404;2022-12-29T05:53:45;32.85;;;14.23;;
65656;SDS011;57397;50.096;14.404;2022-12-29T05:56:11;34.67;;;14.35;;
65656;SDS011;57397;50.096;14.404;2022-12-29T05:58:36;36.42;;;16.27;;
65656;SDS011;57397;50.096;14.404;2022-12-29T06:01:02;42.25;;;19.52;;
65656;SDS011;57397;50.096;14.404;2022-12-29T06:03:27;47.00;;;21.08;;
65656;SDS011;57397;50.096;14.404;2022-12-29T06:05:53;51.58;;;23.58;;
65656;SDS011;57397;50.096;14.404;2022-12-29T06:08:18;43.50;;;21.80;;
65656;SDS011;57397;50.096;14.404;2022-12-29T06:10:43;42.17;;;20.42;;
65656;SDS011;57397;50.096;14.404;2022-12-29T06:13:09;41.72;;;20.27;;
65656;SDS011;57397;50.096;14.404;2022-12-29T06:15:34;38.17;;;18.58;;
65656;SDS011;57397;50.096;14.404;2022-12-29T06:18:00;41.08;;;19.13;;
65656;SDS011;57397;50.096;14.404;2022-12-29T06:20:26;36.80;;;18.00;;
65656;SDS011;57397;50.096;14.404;2022-12-29T06:22:51;39.88;;;18.20;;
65656;SDS011;57397;50.096;14.404;2022-12-29T06:25:17;36.83;;;18.23;;
65656;SDS011;57397;50.096;14.404;2022-12-29T06:27:42;34.70;;;17.75;;
65656;SDS011;57397;50.096;14.404;2022-12-29T06:30:09;33.38;;;15.98;;
65656;SDS011;57397;50.096;14.404;2022-12-29T06:32:35;32.55;;;15.73;;
65656;SDS011;57397;50.096;14.404;2022-12-29T06:35:01;28.48;;;14.50;;
65656;SDS011;57397;50.096;14.404;2022-12-29T06:37:27;26.92;;;13.77;;
65656;SDS011;57397;50.096;14.404;2022-12-29T06:39:52;23.55;;;12.73;;
65656;SDS011;57397;50.096;14.404;2022-12-29T06:42:18;23.88;;;11.70;;
65656;SDS011;57397;50.096;14.404;2022-12-29T06:44:43;22.85;;;10.65;;
65656;SDS011;57397;50.096;14.404;2022-12-29T06:47:09;19.35;;;9.80;;
65656;SDS011;57397;50.096;14.404;2022-12-29T06:49:34;18.40;;;9.23;;
65656;SDS011;57397;50.096;14.404;2022-12-29T06:52:00;18.95;;;9.40;;
65656;SDS011;57397;50.096;14.404;2022-12-29T06:54:29;17.15;;;8.70;;
65656;SDS011;57397;50.096;14.404;2022-12-29T06:56:54;16.05;;;8.30;;
65656;SDS011;57397;50.096;14.404;2022-12-29T06:59:20;14.90;;;7.18;;
65656;SDS011;57397;50.096;14.404;2022-12-29T07:01:45;15.10;;;6.97;;
65656;SDS011;57397;50.096;14.404;2022-12-29T07:04:11;12.07;;;6.88;;
65656;SDS011;57397;50.096;14.404;2022-12-29T07:06:36;11.43;;;6.18;;
65656;SDS011;57397;50.096;14.404;2022-12-29T07:09:02;13.95;;;6.18;;
65656;SDS011;57397;50.096;14.404;2022-12-29T07:11:28;12.40;;;5.90;;
65656;SDS011;57397;50.096;14.404;2022-12-29T07:13:53;11.50;;;5.90;;
65656;SDS011;57397;50.096;14.404;2022-12-29T07:16:18;10.60;;;5.32;;
65656;SDS011;57397;50.096;14.404;2022-12-29T07:18:45;9.75;;;5.20;;
65656;SDS011;57397;50.096;14.404;2022-12-29T07:21:10;10.45;;;5.10;;
65656;SDS011;57397;50.096;14.404;2022-12-29T07:23:36;10.13;;;5.13;;
65656;SDS011;57397;50.096;14.404;2022-12-29T07:26:06;8.25;;;4.45;;
65656;SDS011;57397;50.096;14.404;2022-12-29T07:28:33;10.88;;;5.05;;
65656;SDS011;57397;50.096;14.404;2022-12-29T07:30:59;8.13;;;4.20;;
65656;SDS011;57397;50.096;14.404;2022-12-29T07:33:25;9.40;;;4.20;;
65656;SDS011;57397;50.096;14.404;2022-12-29T07:35:53;7.10;;;3.92;;
65656;SDS011;57397;50.096;14.404;2022-12-29T07:38:20;6.97;;;4.00;;
65656;SDS011;57397;50.096;14.404;2022-12-29T07:40:45;7.55;;;3.67;;
65656;SDS011;57397;50.096;14.404;2022-12-29T07:43:11;6.95;;;3.83;;
65656;SDS011;57397;50.096;14.404;2022-12-29T07:45:37;6.53;;;3.75;;
65656;SDS011;57397;50.096;14.404;2022-12-29T07:48:03;7.07;;;3.40;;
65656;SDS011;57397;50.096;14.404;2022-12-29T07:50:30;5.93;;;3.30;;
65656;SDS011;57397;50.096;14.404;2022-12-29T07:52:56;6.15;;;3.40;;
65656;SDS011;57397;50.096;14.404;2022-12-29T07:55:22;6.65;;;3.40;;
65656;SDS011;57397;50.096;14.404;2022-12-29T07:57:47;6.20;;;3.25;;
65656;SDS011;57397;50.096;14.404;2022-12-29T08:00:13;5.32;;;2.88;;
65656;SDS011;57397;50.096;14.404;2022-12-29T08:02:39;6.20;;;3.10;;
65656;SDS011;57397;50.096;14.404;2022-12-29T08:05:05;5.57;;;3.03;;
65656;SDS011;57397;50.096;14.404;2022-12-29T08:07:31;4.93;;;2.83;;
65656;SDS011;57397;50.096;14.404;2022-12-29T08:09:57;5.78;;;2.78;;
65656;SDS011;57397;50.096;14.404;2022-12-29T08:12:23;5.72;;;3.15;;
65656;SDS011;57397;50.096;14.404;2022-12-29T08:14:48;5.20;;;2.70;;
65656;SDS011;57397;50.096;14.404;2022-12-29T08:17:14;4.93;;;2.50;;
65656;SDS011;57397;50.096;14.404;2022-12-29T08:19:39;6.97;;;2.67;;
65656;SDS011;57397;50.096;14.404;2022-12-29T08:22:06;6.55;;;3.05;;
65656;SDS011;57397;50.096;14.404;2022-12-29T08:24:31;4.05;;;2.28;;
65656;SDS011;57397;50.096;14.404;2022-12-29T08:26:57;4.18;;;2.30;;
65656;SDS011;57397;50.096;14.404;2022-12-29T08:29:23;4.40;;;2.50;;
65656;SDS011;57397;50.096;14.404;2022-12-29T08:31:51;4.32;;;2.20;;
65656;SDS011;57397;50.096;14.404;2022-12-29T08:34:17;3.67;;;2.15;;
65656;SDS011;57397;50.096;14.404;2022-12-29T08:36:42;4.30;;;2.45;;
65656;SDS011;57397;50.096;14.404;2022-12-29T08:39:11;4.38;;;2.08;;
65656;SDS011;57397;50.096;14.404;2022-12-29T08:41:36;5.63;;;2.50;;
65656;SDS011;57397;50.096;14.404;2022-12-29T08:44:02;3.92;;;2.40;;
65656;SDS011;57397;50.096;14.404;2022-12-29T08:46:28;3.47;;;2.05;;
65656;SDS011;57397;50.096;14.404;2022-12-29T08:48:54;3.97;;;1.90;;
65656;SDS011;57397;50.096;14.404;2022-12-29T08:51:19;3.72;;;2.00;;
65656;SDS011;57397;50.096;14.404;2022-12-29T08:53:45;3.08;;;1.98;;
65656;SDS011;57397;50.096;14.404;2022-12-29T08:56:11;3.10;;;1.77;;
65656;SDS011;57397;50.096;14.404;2022-12-29T08:58:37;4.05;;;1.85;;
65656;SDS011;57397;50.096;14.404;2022-12-29T09:01:03;3.38;;;1.95;;
65656;SDS011;57397;50.096;14.404;2022-12-29T09:03:29;3.55;;;1.80;;
65656;SDS011;57397;50.096;14.404;2022-12-29T09:05:54;2.90;;;1.70;;
65656;SDS011;57397;50.096;14.404;2022-12-29T09:08:20;3.60;;;1.60;;
65656;SDS011;57397;50.096;14.404;2022-12-29T09:10:46;3.75;;;1.80;;
65656;SDS011;57397;50.096;14.404;2022-12-29T09:13:12;3.30;;;1.70;;
65656;SDS011;57397;50.096;14.404;2022-12-29T09:15:40;5.15;;;2.30;;
65656;SDS011;57397;50.096;14.404;2022-12-29T09:18:06;5.53;;;2.22;;
65656;SDS011;57397;50.096;14.404;2022-12-29T09:20:32;4.45;;;2.05;;
65656;SDS011;57397;50.096;14.404;2022-12-29T09:22:59;3.95;;;2.08;;
65656;SDS011;57397;50.096;14.404;2022-12-29T09:25:27;3.45;;;1.80;;
65656;SDS011;57397;50.096;14.404;2022-12-29T09:27:52;3.63;;;1.88;;
65656;SDS011;57397;50.096;14.404;2022-12-29T09:30:19;3.47;;;1.65;;
65656;SDS011;57397;50.096;14.404;2022-12-29T09:32:46;3.33;;;1.88;;
65656;SDS011;57397;50.096;14.404;2022-12-29T09:35:12;3.05;;;1.60;;
65656;SDS011;57397;50.096;14.404;2022-12-29T09:37:38;3.63;;;2.08;;
65656;SDS011;57397;50.096;14.404;2022-12-29T09:40:04;3.53;;;2.03;;
65656;SDS011;57397;50.096;14.404;2022-12-29T09:42:46;4.75;;;2.08;;
65656;SDS011;57397;50.096;14.404;2022-12-29T09:46:26;4.85;;;2.20;;
65656;SDS011;57397;50.096;14.404;2022-12-29T09:48:41;3.75;;;2.10;;
65656;SDS011;57397;50.096;14.404;2022-12-29T09:51:15;3.92;;;2.00;;
65656;SDS011;57397;50.096;14.404;2022-12-29T09:53:43;2.97;;;1.80;;
65656;SDS011;57397;50.096;14.404;2022-12-29T09:56:13;3.28;;;1.80;;
65656;SDS011;57397;50.096;14.404;2022-12-29T10:01:32;3.95;;;1.77;;
65656;SDS011;57397;50.096;14.404;2022-12-29T10:04:02;2.92;;;1.90;;
65656;SDS011;57397;50.096;14.404;2022-12-29T10:25:10;2.55;;;1.60;;
65656;SDS011;57397;50.096;14.404;2022-12-29T10:27:39;2.85;;;1.65;;
65656;SDS011;57397;50.096;14.404;2022-12-29T10:30:05;4.00;;;1.80;;
65656;SDS011;57397;50.096;14.404;2022-12-29T10:32:43;3.15;;;1.70;;
65656;SDS011;57397;50.096;14.404;2022-12-29T10:35:16;2.67;;;1.50;;
65656;SDS011;57397;50.096;14.404;2022-12-29T10:37:52;2.80;;;1.50;;
65656;SDS011;57397;50.096;14.404;2022-12-29T10:43:01;3.33;;;1.50;;
65656;SDS011;57397;50.096;14.404;2022-12-29T10:45:52;2.17;;;1.30;;
65656;SDS011;57397;50.096;14.404;2022-12-29T10:48:22;2.85;;;1.50;;
65656;SDS011;57397;50.096;14.404;2022-12-29T10:50:51;1.73;;;1.20;;
65656;SDS011;57397;50.096;14.404;2022-12-29T10:53:21;2.00;;;1.30;;
65656;SDS011;57397;50.096;14.404;2022-12-29T10:55:49;3.05;;;1.60;;
65656;SDS011;57397;50.096;14.404;2022-12-29T10:58:18;3.05;;;1.27;;
65656;SDS011;57397;50.096;14.404;2022-12-29T11:00:49;1.85;;;1.20;;
65656;SDS011;57397;50.096;14.404;2022-12-29T11:06:04;2.60;;;1.40;;
65656;SDS011;57397;50.096;14.404;2022-12-29T11:08:38;2.72;;;1.45;;
65656;SDS011;57397;50.096;14.404;2022-12-29T11:11:07;2.67;;;1.50;;
65656;SDS011;57397;50.096;14.404;2022-12-29T11:13:35;2.65;;;1.20;;
65656;SDS011;57397;50.096;14.404;2022-12-29T11:16:12;1.98;;;1.20;;
65656;SDS011;57397;50.096;14.404;2022-12-29T11:18:38;2.20;;;1.20;;
65656;SDS011;57397;50.096;14.404;2022-12-29T11:21:06;3.05;;;1.50;;
65656;SDS011;57397;50.096;14.404;2022-12-29T11:23:41;3.22;;;1.40;;
65656;SDS011;57397;50.096;14.404;2022-12-29T11:28:38;2.00;;;1.30;;
65656;SDS011;57397;50.096;14.404;2022-12-29T11:31:04;1.70;;;1.10;;
65656;SDS011;57397;50.096;14.404;2022-12-29T11:33:32;3.00;;;1.23;;
65656;SDS011;57397;50.096;14.404;2022-12-29T11:36:10;1.55;;;1.20;;
65656;SDS011;57397;50.096;14.404;2022-12-29T11:38:40;2.38;;;1.30;;
65656;SDS011;57397;50.096;14.404;2022-12-29T11:41:28;2.38;;;1.30;;
65656;SDS011;57397;50.096;14.404;2022-12-29T11:43:55;3.33;;;1.40;;
65656;SDS011;57397;50.096;14.404;2022-12-29T11:46:29;2.30;;;1.20;;
65656;SDS011;57397;50.096;14.404;2022-12-29T11:48:56;2.20;;;1.40;;
65656;SDS011;57397;50.096;14.404;2022-12-29T11:51:25;2.30;;;1.30;;
65656;SDS011;57397;50.096;14.404;2022-12-29T11:53:55;3.35;;;1.73;;
65656;SDS011;57397;50.096;14.404;2022-12-29T11:56:39;6.57;;;2.13;;
65656;SDS011;57397;50.096;14.404;2022-12-29T12:01:56;3.30;;;1.80;;
65656;SDS011;57397;50.096;14.404;2022-12-29T12:04:26;4.03;;;1.80;;
65656;SDS011;57397;50.096;14.404;2022-12-29T12:07:08;3.20;;;1.40;;
65656;SDS011;57397;50.096;14.404;2022-12-29T12:12:07;3.63;;;1.70;;
65656;SDS011;57397;50.096;14.404;2022-12-29T12:14:51;2.78;;;1.60;;
65656;SDS011;57397;50.096;14.404;2022-12-29T12:17:23;2.67;;;1.58;;
65656;SDS011;57397;50.096;14.404;2022-12-29T12:20:22;2.20;;;1.33;;
65656;SDS011;57397;50.096;14.404;2022-12-29T12:23:19;3.55;;;1.85;;
65656;SDS011;57397;50.096;14.404;2022-12-29T12:26:18;3.55;;;1.75;;
65656;SDS011;57397;50.096;14.404;2022-12-29T12:28:54;4.80;;;2.47;;
65656;SDS011;57397;50.096;14.404;2022-12-29T12:34:29;4.07;;;1.75;;
65656;SDS011;57397;50.096;14.404;2022-12-29T12:46:06;3.13;;;1.63;;
65656;SDS011;57397;50.096;14.404;2022-12-29T13:00:13;2.88;;;1.65;;
65656;SDS011;57397;50.096;14.404;2022-12-29T13:06:00;2.55;;;1.25;;
65656;SDS011;57397;50.096;14.404;2022-12-29T13:10:42;2.13;;;1.20;;
65656;SDS011;57397;50.096;14.404;2022-12-29T13:16:06;2.83;;;1.42;;
65656;SDS011;57397;50.096;14.404;2022-12-29T13:19:30;2.90;;;1.50;;
65656;SDS011;57397;50.096;14.404;2022-12-29T13:22:09;3.63;;;1.50;;
65656;SDS011;57397;50.096;14.404;2022-12-29T13:30:08;2.80;;;1.30;;
65656;SDS011;57397;50.096;14.404;2022-12-29T13:35:13;3.45;;;1.77;;
65656;SDS011;57397;50.096;14.404;2022-12-29T13:37:52;2.50;;;1.40;;
65656;SDS011;57397;50.096;14.404;2022-12-29T13:40:21;2.60;;;1.20;;
65656;SDS011;57397;50.096;14.404;2022-12-29T13:42:51;3.53;;;1.60;;
65656;SDS011;57397;50.096;14.404;2022-12-29T13:45:19;2.38;;;1.40;;
65656;SDS011;57397;50.096;14.404;2022-12-29T13:47:49;2.42;;;1.33;;
65656;SDS011;57397;50.096;14.404;2022-12-29T13:50:21;2.70;;;1.33;;
65656;SDS011;57397;50.096;14.404;2022-12-29T13:52:55;2.40;;;1.38;;
65656;SDS011;57397;50.096;14.404;2022-12-29T13:55:55;3.72;;;1.80;;
65656;SDS011;57397;50.096;14.404;2022-12-29T14:01:15;2.00;;;1.27;;
65656;SDS011;57397;50.096;14.404;2022-12-29T14:03:49;2.58;;;1.48;;
65656;SDS011;57397;50.096;14.404;2022-12-29T14:09:02;3.28;;;1.40;;
65656;SDS011;57397;50.096;14.404;2022-12-29T14:11:51;3.03;;;1.50;;
65656;SDS011;57397;50.096;14.404;2022-12-29T14:16:49;3.08;;;1.55;;
65656;SDS011;57397;50.096;14.404;2022-12-29T14:19:31;3.47;;;1.60;;
65656;SDS011;57397;50.096;14.404;2022-12-29T14:21:59;6.65;;;2.85;;
65656;SDS011;57397;50.096;14.404;2022-12-29T14:24:28;6.70;;;2.88;;
65656;SDS011;57397;50.096;14.404;2022-12-29T14:34:45;2.83;;;1.50;;
65656;SDS011;57397;50.096;14.404;2022-12-29T14:40:17;2.85;;;1.58;;
65656;SDS011;57397;50.096;14.404;2022-12-29T14:42:44;3.30;;;1.67;;
65656;SDS011;57397;50.096;14.404;2022-12-29T14:52:52;3.05;;;1.77;;
65656;SDS011;57397;50.096;14.404;2022-12-29T14:58:26;3.75;;;1.60;;
65656;SDS011;57397;50.096;14.404;2022-12-29T15:00:53;2.17;;;1.40;;
65656;SDS011;57397;50.096;14.404;2022-12-29T15:03:23;2.72;;;1.60;;
65656;SDS011;57397;50.096;14.404;2022-12-29T15:06:19;3.33;;;1.60;;
65656;SDS011;57397;50.096;14.404;2022-12-29T15:14:00;2.50;;;1.38;;
65656;SDS011;57397;50.096;14.404;2022-12-29T15:18:54;2.50;;;1.48;;
65656;SDS011;57397;50.096;14.404;2022-12-29T15:21:31;4.03;;;1.80;;
65656;SDS011;57397;50.096;14.404;2022-12-29T15:23:57;1.70;;;1.20;;
65656;SDS011;57397;50.096;14.404;2022-12-29T15:26:23;3.83;;;1.73;;
65656;SDS011;57397;50.096;14.404;2022-12-29T15:29:01;4.97;;;1.70;;
65656;SDS011;57397;50.096;14.404;2022-12-29T15:31:27;3.88;;;1.55;;
65656;SDS011;57397;50.096;14.404;2022-12-29T15:33:53;3.85;;;1.50;;
65656;SDS011;57397;50.096;14.404;2022-12-29T15:36:21;4.03;;;1.85;;
65656;SDS011;57397;50.096;14.404;2022-12-29T15:38:53;3.83;;;1.92;;
65656;SDS011;57397;50.096;14.404;2022-12-29T15:41:24;3.72;;;1.92;;
65656;SDS011;57397;50.096;14.404;2022-12-29T15:46:30;3.47;;;1.85;;
65656;SDS011;57397;50.096;14.404;2022-12-29T15:48:56;3.83;;;1.95;;
65656;SDS011;57397;50.096;14.404;2022-12-29T15:51:29;3.92;;;2.10;;
65656;SDS011;57397;50.096;14.404;2022-12-29T15:53:58;3.53;;;2.05;;
65656;SDS011;57397;50.096;14.404;2022-12-29T15:56:24;5.00;;;2.40;;
65656;SDS011;57397;50.096;14.404;2022-12-29T15:58:50;3.85;;;2.28;;
65656;SDS011;57397;50.096;14.404;2022-12-29T16:01:35;4.32;;;2.35;;
65656;SDS011;57397;50.096;14.404;2022-12-29T16:04:05;4.82;;;2.15;;
65656;SDS011;57397;50.096;14.404;2022-12-29T16:06:32;4.22;;;2.30;;
65656;SDS011;57397;50.096;14.404;2022-12-29T16:09:07;4.13;;;1.98;;
65656;SDS011;57397;50.096;14.404;2022-12-29T16:11:43;2.75;;;1.85;;
65656;SDS011;57397;50.096;14.404;2022-12-29T16:14:18;3.88;;;2.05;;
65656;SDS011;57397;50.096;14.404;2022-12-29T16:16:52;3.67;;;1.90;;
65656;SDS011;57397;50.096;14.404;2022-12-29T16:19:32;3.05;;;1.85;;
65656;SDS011;57397;50.096;14.404;2022-12-29T16:22:00;3.25;;;1.90;;
65656;SDS011;57397;50.096;14.404;2022-12-29T16:24:28;3.90;;;1.80;;
65656;SDS011;57397;50.096;14.404;2022-12-29T16:27:31;2.70;;;1.80;;
65656;SDS011;57397;50.096;14.404;2022-12-29T16:29:53;3.15;;;1.60;;
65656;SDS011;57397;50.096;14.404;2022-12-29T16:32:27;2.78;;;1.58;;
65656;SDS011;57397;50.096;14.404;2022-12-29T16:35:28;3.10;;;1.92;;
65656;SDS011;57397;50.096;14.404;2022-12-29T16:37:48;2.97;;;1.40;;
65656;SDS011;57397;50.096;14.404;2022-12-29T16:40:37;4.00;;;1.77;;
65656;SDS011;57397;50.096;14.404;2022-12-29T16:43:18;2.53;;;1.63;;
65656;SDS011;57397;50.096;14.404;2022-12-29T16:48:28;2.55;;;1.60;;
65656;SDS011;57397;50.096;14.404;2022-12-29T16:53:37;3.65;;;1.88;;
65656;SDS011;57397;50.096;14.404;2022-12-29T16:56:20;3.72;;;1.85;;
65656;SDS011;57397;50.096;14.404;2022-12-29T16:58:49;2.92;;;1.75;;
65656;SDS011;57397;50.096;14.404;2022-12-29T17:01:17;3.25;;;1.92;;
65656;SDS011;57397;50.096;14.404;2022-12-29T17:03:52;3.95;;;1.95;;
65656;SDS011;57397;50.096;14.404;2022-12-29T17:06:21;3.35;;;2.10;;
65656;SDS011;57397;50.096;14.404;2022-12-29T17:08:48;3.38;;;1.85;;
65656;SDS011;57397;50.096;14.404;2022-12-29T17:11:24;3.83;;;1.85;;
65656;SDS011;57397;50.096;14.404;2022-12-29T17:14:31;4.25;;;2.05;;
65656;SDS011;57397;50.096;14.404;2022-12-29T17:20:02;4.05;;;2.22;;
65656;SDS011;57397;50.096;14.404;2022-12-29T17:22:40;4.07;;;2.20;;
65656;SDS011;57397;50.096;14.404;2022-12-29T17:25:06;3.65;;;1.90;;
65656;SDS011;57397;50.096;14.404;2022-12-29T17:27:35;3.60;;;2.00;;